createdAt,value
2019-02-03T00:01:14.250Z,76.00
2019-02-03T00:03:40.642Z,80.77
2019-02-03T00:06:07.066Z,79.10
2019-02-03T00:08:33.381Z,79.97
2019-02-03T00:10:59.726Z,83.03
2019-02-03T00:13:25.934Z,81.13
2019-02-03T00:15:52.138Z,77.93
2019-02-03T00:18:18.358Z,76.17
2019-02-03T00:20:44.567Z,74.57
2019-02-03T00:23:10.795Z,77.33
2019-02-03T00:25:36.991Z,71.20
2019-02-03T00:28:03.315Z,76.90
2019-02-03T00:30:29.643Z,73.73
2019-02-03T00:32:55.860Z,70.57
2019-02-03T00:35:22.074Z,74.30
2019-02-03T00:37:48.324Z,77.27
2019-02-03T00:40:14.991Z,82.47
2019-02-03T00:42:41.348Z,75.57
2019-02-03T00:45:10.559Z,74.37
2019-02-03T00:47:36.757Z,77.83
2019-02-03T00:50:09.470Z,73.67
2019-02-03T00:52:36.159Z,77.30
2019-02-03T00:55:05.390Z,78.43
2019-02-03T00:57:32.458Z,71.53
2019-02-03T00:59:58.819Z,75.40
2019-02-03T01:02:25.517Z,69.80
2019-02-03T01:04:52.071Z,66.17
2019-02-03T01:07:27.178Z,69.17
2019-02-03T01:09:46.499Z,66.23
2019-02-03T01:12:12.699Z,66.40
2019-02-03T01:14:38.943Z,64.83
2019-02-03T01:17:05.249Z,65.63
2019-02-03T01:19:31.711Z,64.50
2019-02-03T01:21:57.927Z,65.00
2019-02-03T01:24:24.131Z,63.30
2019-02-03T01:26:50.358Z,64.10
2019-02-03T01:29:16.571Z,64.93
2019-02-03T01:31:42.807Z,64.57
2019-02-03T01:34:09.111Z,66.80
2019-02-03T01:36:35.330Z,63.90
2019-02-03T01:39:04.046Z,61.23
2019-02-03T01:41:30.252Z,65.80
2019-02-03T01:43:56.574Z,65.77
2019-02-03T01:46:22.878Z,66.43
2019-02-03T01:48:49.203Z,66.17
2019-02-03T01:51:15.406Z,67.23
2019-02-03T01:53:41.631Z,71.13
2019-02-03T01:56:08.139Z,63.40
2019-02-03T01:58:34.458Z,68.07
2019-02-03T02:01:01.069Z,65.37
2019-02-03T02:03:27.285Z,66.27
2019-02-03T02:05:53.487Z,64.57
2019-02-03T02:08:39.670Z,67.43
2019-02-03T02:11:05.887Z,71.13
2019-02-03T02:13:32.094Z,71.30
2019-02-03T02:15:58.327Z,76.40
2019-02-03T02:18:24.646Z,71.17
2019-02-03T02:20:50.971Z,73.20
2019-02-03T02:23:17.195Z,79.53
2019-02-03T02:25:43.695Z,76.73
2019-02-03T02:28:09.902Z,78.57
2019-02-03T02:30:39.160Z,81.70
2019-02-03T02:33:06.270Z,83.20
2019-02-03T02:35:32.632Z,93.00
2019-02-03T02:38:06.398Z,89.17
2019-02-03T02:40:27.064Z,87.27
2019-02-03T02:42:54.187Z,95.90
2019-02-03T02:45:20.846Z,91.07
2019-02-03T02:47:47.171Z,86.53
2019-02-03T02:50:28.507Z,90.47
2019-02-03T02:52:55.047Z,100.90
2019-02-03T02:55:22.030Z,101.53
2019-02-03T02:57:48.751Z,101.00
2019-02-03T03:00:17.710Z,107.70
2019-02-03T03:02:44.389Z,112.67
2019-02-03T03:05:10.898Z,106.30
2019-02-03T03:07:37.118Z,110.47
2019-02-03T03:10:05.748Z,109.13
2019-02-03T03:12:32.434Z,107.57
2019-02-03T03:14:58.657Z,109.40
2019-02-03T03:17:24.850Z,118.73
2019-02-03T03:19:51.082Z,109.50
2019-02-03T03:22:17.391Z,111.67
2019-02-03T03:24:43.602Z,111.60
2019-02-03T03:27:09.806Z,115.77
2019-02-03T03:29:36.031Z,111.63
2019-02-03T03:32:03.356Z,103.67
2019-02-03T03:34:29.571Z,103.10
2019-02-03T03:36:55.923Z,103.27
2019-02-03T03:39:22.437Z,97.67
2019-02-03T03:41:48.657Z,94.60
2019-02-03T03:44:14.874Z,91.70
2019-02-03T03:46:41.199Z,94.20
2019-02-03T03:49:07.795Z,94.47
2019-02-03T03:51:34.329Z,96.40
2019-02-03T03:54:00.631Z,92.10
2019-02-03T03:56:26.866Z,100.10
2019-02-03T03:58:53.074Z,93.60
2019-02-03T04:01:19.411Z,86.83
2019-02-03T04:03:45.695Z,91.70
2019-02-03T04:06:12.209Z,87.93
2019-02-03T04:08:45.353Z,87.33
2019-02-03T04:11:06.635Z,89.27
2019-02-03T04:13:32.863Z,91.97
2019-02-03T04:15:59.067Z,93.87
2019-02-03T04:18:25.582Z,89.87
2019-02-03T04:20:51.782Z,83.57
2019-02-03T04:23:18.398Z,86.83
2019-02-03T04:25:44.794Z,83.93
2019-02-03T04:28:11.110Z,84.93
2019-02-03T04:30:37.439Z,83.73
2019-02-03T04:33:03.682Z,88.07
2019-02-03T04:35:29.994Z,82.40
2019-02-03T04:37:56.295Z,80.53
2019-02-03T04:40:22.741Z,86.87
2019-02-03T04:42:49.434Z,82.10
2019-02-03T04:45:17.178Z,82.13
2019-02-03T04:47:43.842Z,81.93
2019-02-03T04:50:12.964Z,81.53
2019-02-03T04:52:39.175Z,83.93
2019-02-03T04:55:08.794Z,80.63
2019-02-03T04:57:35.402Z,77.60
2019-02-03T05:00:04.016Z,83.73
2019-02-03T05:02:30.322Z,83.30
2019-02-03T05:04:56.530Z,79.03
2019-02-03T05:07:22.754Z,83.03
2019-02-03T05:09:48.956Z,79.27
2019-02-03T05:12:15.169Z,82.93
2019-02-03T05:14:41.875Z,82.27
2019-02-03T05:17:08.203Z,83.80
2019-02-03T05:19:34.411Z,79.20
2019-02-03T05:22:00.630Z,82.17
2019-02-03T05:24:26.827Z,82.37
2019-02-03T05:26:53.055Z,79.37
2019-02-03T05:29:19.307Z,83.37
2019-02-03T05:31:45.588Z,79.33
2019-02-03T05:34:12.106Z,82.90
2019-02-03T05:36:38.306Z,81.13
2019-02-03T05:39:05.531Z,84.03
2019-02-03T05:41:31.732Z,89.83
2019-02-03T05:43:57.947Z,79.87
2019-02-03T05:46:24.147Z,83.17
2019-02-03T05:48:50.370Z,80.73
2019-02-03T05:51:17.074Z,84.23
2019-02-03T05:53:43.319Z,85.03
2019-02-03T05:56:09.616Z,82.57
2019-02-03T05:58:35.916Z,85.77
2019-02-03T06:01:02.538Z,81.67
2019-02-03T06:03:28.742Z,84.13
2019-02-03T06:05:54.963Z,88.83
2019-02-03T06:08:21.954Z,83.60
2019-02-03T06:10:48.280Z,88.47
2019-02-03T06:13:14.726Z,86.37
2019-02-03T06:15:41.048Z,91.83
2019-02-03T06:18:07.458Z,82.90
2019-02-03T06:20:33.678Z,85.83
2019-02-03T06:22:59.889Z,85.40
2019-02-03T06:25:26.197Z,85.57
2019-02-03T06:27:52.620Z,89.80
2019-02-03T06:30:22.649Z,86.93
2019-02-03T06:32:48.970Z,86.77
2019-02-03T06:35:15.174Z,89.17
2019-02-03T06:37:41.468Z,83.10
2019-02-03T06:40:09.499Z,96.30
2019-02-03T06:42:36.115Z,86.67
2019-02-03T06:45:06.547Z,92.60
2019-02-03T06:47:32.867Z,93.13
2019-02-03T06:49:59.057Z,94.17
2019-02-03T06:52:25.277Z,87.90
2019-02-03T06:54:51.502Z,92.17
2019-02-03T06:57:17.702Z,94.70
2019-02-03T06:59:50.942Z,85.37
2019-02-03T07:02:12.537Z,91.80
2019-02-03T07:04:44.697Z,92.73
2019-02-03T07:07:11.098Z,89.77
2019-02-03T07:09:37.314Z,85.07
2019-02-03T07:12:04.470Z,86.00
2019-02-03T07:14:30.684Z,88.70
2019-02-03T07:16:56.890Z,81.43
2019-02-03T07:19:23.327Z,84.63
2019-02-03T07:21:49.747Z,84.50
2019-02-03T07:24:16.066Z,80.27
2019-02-03T07:26:42.275Z,83.87
2019-02-03T07:29:08.518Z,87.03
2019-02-03T07:31:34.822Z,87.23
2019-02-03T07:34:01.342Z,85.00
2019-02-03T07:36:27.578Z,95.57
2019-02-03T07:38:54.055Z,89.70
2019-02-03T07:41:20.263Z,86.60
2019-02-03T07:43:46.554Z,81.77
2019-02-03T07:46:12.856Z,79.30
2019-02-03T07:48:39.298Z,78.97
2019-02-03T07:51:05.991Z,81.47
2019-02-03T07:53:32.443Z,78.47
2019-02-03T07:55:58.663Z,77.93
2019-02-03T07:58:24.971Z,76.50
2019-02-03T08:00:51.195Z,77.40
2019-02-03T08:03:17.706Z,75.50
2019-02-03T08:05:43.946Z,72.23
2019-02-03T08:08:10.150Z,70.87
2019-02-03T08:10:37.270Z,75.40
2019-02-03T08:13:03.581Z,89.60
2019-02-03T08:15:30.067Z,69.23
2019-02-03T08:17:56.262Z,68.47
2019-02-03T08:20:28.166Z,72.37
2019-02-03T08:22:54.679Z,70.37
2019-02-03T08:25:21.217Z,71.33
2019-02-03T08:27:49.174Z,72.47
2019-02-03T08:30:22.537Z,69.83
2019-02-03T08:32:48.846Z,69.37
2019-02-03T08:35:15.183Z,68.43
2019-02-03T08:37:41.498Z,69.53
2019-02-03T08:40:13.891Z,69.93
2019-02-03T08:42:40.207Z,68.80
2019-02-03T08:45:09.006Z,65.57
2019-02-03T08:47:35.229Z,62.03
2019-02-03T08:50:02.032Z,65.33
2019-02-03T08:52:28.351Z,63.87
2019-02-03T08:54:58.481Z,62.43
2019-02-03T08:57:22.859Z,62.27
2019-02-03T08:59:49.404Z,65.63
2019-02-03T09:02:15.618Z,61.43
2019-02-03T09:04:41.815Z,60.77
2019-02-03T09:07:08.034Z,74.77
2019-02-03T09:09:34.234Z,59.50
2019-02-03T09:12:00.460Z,60.13
2019-02-03T09:14:26.767Z,59.07
2019-02-03T09:16:53.386Z,53.73
2019-02-03T09:19:19.703Z,56.67
2019-02-03T09:21:45.925Z,58.40
2019-02-03T09:24:12.242Z,50.00
2019-02-03T09:26:38.459Z,55.13
2019-02-03T09:29:05.206Z,50.20
2019-02-03T09:31:31.763Z,50.93
2019-02-03T09:33:58.311Z,52.77
2019-02-03T09:36:24.600Z,48.90
2019-02-03T09:38:50.814Z,49.00
2019-02-03T09:41:17.322Z,46.23
2019-02-03T09:43:43.553Z,51.20
2019-02-03T09:46:09.871Z,48.50
2019-02-03T09:48:36.085Z,46.13
2019-02-03T09:51:02.393Z,55.87
2019-02-03T09:53:29.011Z,53.93
2019-02-03T09:55:55.239Z,46.03
2019-02-03T09:58:21.605Z,44.93
2019-02-03T10:00:47.919Z,43.37
2019-02-03T10:03:14.181Z,44.47
2019-02-03T10:05:40.402Z,40.07
2019-02-03T10:08:06.711Z,40.23
2019-02-03T10:10:40.321Z,42.80
2019-02-03T10:13:07.586Z,41.47
2019-02-03T10:15:33.867Z,42.93
2019-02-03T10:18:00.231Z,41.27
2019-02-03T10:20:26.754Z,37.57
2019-02-03T10:22:57.775Z,35.90
2019-02-03T10:25:26.828Z,37.40
2019-02-03T10:27:53.605Z,35.30
2019-02-03T10:30:21.118Z,34.80
2019-02-03T10:32:47.830Z,39.07
2019-02-03T10:35:23.541Z,36.10
2019-02-03T10:37:48.650Z,35.60
2019-02-03T10:40:17.869Z,34.43
2019-02-03T10:42:44.692Z,32.93
2019-02-03T10:45:14.216Z,33.97
2019-02-03T10:47:40.924Z,30.37
2019-02-03T10:50:13.723Z,35.00
2019-02-03T10:52:40.123Z,33.20
2019-02-03T10:55:07.586Z,30.70
2019-02-03T10:57:34.497Z,36.63
2019-02-03T11:00:01.098Z,50.70
2019-02-03T11:02:27.306Z,30.93
2019-02-03T11:04:53.527Z,30.90
2019-02-03T11:07:19.879Z,30.63
2019-02-03T11:09:46.093Z,27.17
2019-02-03T11:12:12.407Z,27.50
2019-02-03T11:14:38.726Z,29.17
2019-02-03T11:17:07.990Z,25.73
2019-02-03T11:19:34.211Z,25.73
2019-02-03T11:22:00.538Z,22.73
2019-02-03T11:24:26.981Z,22.47
2019-02-03T11:26:53.410Z,15.37
2019-02-03T11:29:19.719Z,13.67
2019-02-03T11:31:46.045Z,12.00
2019-02-03T11:34:12.354Z,10.87
2019-02-03T11:36:39.498Z,26.60
2019-02-03T11:39:06.202Z,18.00
2019-02-03T11:41:32.530Z,13.20
2019-02-03T11:43:58.833Z,9.47
2019-02-03T11:46:25.174Z,11.80
2019-02-03T11:48:51.478Z,13.30
2019-02-03T11:51:17.735Z,11.33
2019-02-03T11:53:44.457Z,12.33
2019-02-03T11:56:11.283Z,9.10
2019-02-03T11:58:37.531Z,11.57
2019-02-03T12:01:04.555Z,11.37
2019-02-03T12:03:30.770Z,8.87
2019-02-03T12:05:57.141Z,12.27
2019-02-03T12:08:26.065Z,11.77
2019-02-03T12:10:52.279Z,11.10
2019-02-03T12:13:18.804Z,9.87
2019-02-03T12:15:47.886Z,9.23
2019-02-03T12:18:13.234Z,7.97
2019-02-03T12:20:39.435Z,10.37
2019-02-03T12:23:05.750Z,7.23
2019-02-03T12:25:40.230Z,7.00
2019-02-03T12:28:06.958Z,6.70
2019-02-03T12:30:33.463Z,7.33
2019-02-03T12:33:01.083Z,8.63
2019-02-03T12:35:27.491Z,7.73
2019-02-03T12:37:53.914Z,5.83
2019-02-03T12:40:29.978Z,9.80
2019-02-03T12:42:56.311Z,6.93
2019-02-03T12:45:22.923Z,5.90
2019-02-03T12:47:51.135Z,4.93
2019-02-03T12:50:18.050Z,5.57
2019-02-03T12:52:45.253Z,6.23
2019-02-03T12:55:14.595Z,7.30
2019-02-03T12:57:41.190Z,7.03
2019-02-03T13:00:13.358Z,10.60
2019-02-03T13:02:39.834Z,7.57
2019-02-03T13:05:09.282Z,8.20
2019-02-03T13:07:35.708Z,6.93
2019-02-03T13:10:16.396Z,11.33
2019-02-03T13:12:33.936Z,7.37
2019-02-03T13:15:00.339Z,7.77
2019-02-03T13:17:26.821Z,5.90
2019-02-03T13:19:53.051Z,7.00
2019-02-03T13:22:19.354Z,6.83
2019-02-03T13:24:45.790Z,7.80
2019-02-03T13:27:12.090Z,7.10
2019-02-03T13:29:38.716Z,5.83
2019-02-03T13:32:10.919Z,5.23
2019-02-03T13:34:33.261Z,4.60
2019-02-03T13:36:59.682Z,8.27
2019-02-03T13:39:45.767Z,5.70
2019-02-03T13:42:12.366Z,5.03
2019-02-03T13:44:38.686Z,6.80
2019-02-03T13:47:05.022Z,4.37
2019-02-03T13:49:31.247Z,4.67
2019-02-03T13:51:57.444Z,3.80
2019-02-03T13:54:23.783Z,5.57
2019-02-03T13:56:50.091Z,5.57
2019-02-03T13:59:16.614Z,6.37
2019-02-03T14:01:42.823Z,5.47
2019-02-03T14:04:09.251Z,6.60
2019-02-03T14:06:35.810Z,6.83
2019-02-03T14:09:05.929Z,7.50
2019-02-03T14:11:32.130Z,8.23
2019-02-03T14:13:58.346Z,8.37
2019-02-03T14:16:24.546Z,9.73
2019-02-03T14:18:50.826Z,18.10
2019-02-03T14:21:17.030Z,11.00
2019-02-03T14:23:43.603Z,7.73
2019-02-03T14:26:10.078Z,11.13
2019-02-03T14:28:36.286Z,6.90
2019-02-03T14:31:02.606Z,10.03
2019-02-03T14:33:29.324Z,29.13
2019-02-03T14:35:55.567Z,8.63
2019-02-03T14:38:21.883Z,9.07
2019-02-03T14:40:48.242Z,8.13
2019-02-03T14:43:14.454Z,6.40
2019-02-03T14:45:40.887Z,6.70
2019-02-03T14:48:07.301Z,8.10
2019-02-03T14:50:34.115Z,8.50
2019-02-03T14:53:03.850Z,12.37
2019-02-03T14:55:33.073Z,8.40
2019-02-03T14:57:59.401Z,7.20
2019-02-03T15:00:31.122Z,34.50
2019-02-03T15:02:58.641Z,15.23
2019-02-03T15:05:25.259Z,7.53
2019-02-03T15:07:51.479Z,8.80
2019-02-03T15:10:17.786Z,8.83
2019-02-03T15:12:46.923Z,9.00
2019-02-03T15:15:19.862Z,8.80
2019-02-03T15:17:46.105Z,7.10
2019-02-03T15:20:15.913Z,7.60
2019-02-03T15:22:42.131Z,6.93
2019-02-03T15:25:08.435Z,5.13
2019-02-03T15:27:35.122Z,5.70
2019-02-03T15:30:01.841Z,5.93
2019-02-03T15:32:28.060Z,9.30
2019-02-03T15:34:54.270Z,8.23
2019-02-03T15:37:20.495Z,8.07
2019-02-03T15:39:46.702Z,5.23
2019-02-03T15:42:13.153Z,6.97
2019-02-03T15:44:39.353Z,7.37
2019-02-03T15:47:05.575Z,5.60
2019-02-03T15:49:31.887Z,6.30
2019-02-03T15:51:58.109Z,5.07
2019-02-03T15:54:24.914Z,4.20
2019-02-03T15:56:51.251Z,6.10
2019-02-03T15:59:17.446Z,6.53
2019-02-03T16:01:43.670Z,6.80
2019-02-03T16:04:09.875Z,6.53
2019-02-03T16:06:36.097Z,6.60
2019-02-03T16:09:03.913Z,6.50
2019-02-03T16:11:30.814Z,6.50
2019-02-03T16:13:57.022Z,8.00
2019-02-03T16:16:23.358Z,5.10
2019-02-03T16:18:49.678Z,7.67
2019-02-03T16:21:15.907Z,6.63
2019-02-03T16:23:42.111Z,5.00
2019-02-03T16:26:08.582Z,5.17
2019-02-03T16:28:34.803Z,6.83
2019-02-03T16:31:01.027Z,7.03
2019-02-03T16:33:27.277Z,5.77
2019-02-03T16:35:54.563Z,6.47
2019-02-03T16:38:22.976Z,10.87
2019-02-03T16:40:48.985Z,6.33
2019-02-03T16:43:15.630Z,5.23
2019-02-03T16:45:42.014Z,5.63
2019-02-03T16:48:08.443Z,5.50
2019-02-03T16:50:34.742Z,5.47
2019-02-03T16:53:10.024Z,4.17
2019-02-03T16:55:36.830Z,3.80
2019-02-03T16:58:03.966Z,4.60
2019-02-03T17:00:31.472Z,5.17
2019-02-03T17:03:00.867Z,4.90
2019-02-03T17:05:28.872Z,7.07
2019-02-03T17:07:56.397Z,4.87
2019-02-03T17:10:23.810Z,7.63
2019-02-03T17:12:50.135Z,5.50
2019-02-03T17:15:29.286Z,6.80
2019-02-03T17:17:56.345Z,4.53
2019-02-03T17:20:22.841Z,4.97
2019-02-03T17:22:49.048Z,6.70
2019-02-03T17:25:25.094Z,5.70
2019-02-03T17:27:51.610Z,7.67
2019-02-03T17:30:18.130Z,6.27
2019-02-03T17:32:44.656Z,5.70
2019-02-03T17:35:11.575Z,8.00
2019-02-03T17:37:38.092Z,8.13
2019-02-03T17:40:10.719Z,6.40
2019-02-03T17:42:45.687Z,8.57
2019-02-03T17:45:14.711Z,6.97
2019-02-03T17:47:41.515Z,10.60
2019-02-03T17:50:11.710Z,5.50
2019-02-03T17:52:39.170Z,5.20
2019-02-03T17:55:09.458Z,7.57
2019-02-03T17:57:35.666Z,6.57
2019-02-03T18:00:04.589Z,7.63
2019-02-03T18:02:33.839Z,8.47
2019-02-03T18:04:59.335Z,5.07
2019-02-03T18:07:25.538Z,9.10
2019-02-03T18:09:51.770Z,71.63
2019-02-03T18:12:18.205Z,64.27
2019-02-03T18:14:44.508Z,8.37
2019-02-03T18:17:10.830Z,8.90
2019-02-03T18:19:37.537Z,5.80
2019-02-03T18:22:04.271Z,7.53
2019-02-03T18:24:30.574Z,9.57
2019-02-03T18:26:56.807Z,10.40
2019-02-03T18:29:23.106Z,8.37
2019-02-03T18:31:49.322Z,10.10
2019-02-03T18:34:15.890Z,6.60
2019-02-03T18:36:42.117Z,6.50
2019-02-03T18:39:08.674Z,7.87
2019-02-03T18:41:35.088Z,8.53
2019-02-03T18:44:01.307Z,8.30
2019-02-03T18:46:27.747Z,8.67
2019-02-03T18:48:54.155Z,9.53
2019-02-03T18:51:20.879Z,11.03
2019-02-03T18:53:47.182Z,20.37
2019-02-03T18:56:13.890Z,119.50
2019-02-03T18:58:40.123Z,56.23
2019-02-03T19:01:06.834Z,18.37
2019-02-03T19:03:33.049Z,16.63
2019-02-03T19:05:59.258Z,20.60
2019-02-03T19:08:25.587Z,12.93
2019-02-03T19:10:51.798Z,13.63
2019-02-03T19:13:18.021Z,15.30
2019-02-03T19:15:44.226Z,14.97
2019-02-03T19:18:10.466Z,13.10
2019-02-03T19:20:41.602Z,14.37
2019-02-03T19:23:08.438Z,16.23
2019-02-03T19:25:34.642Z,18.53
2019-02-03T19:28:00.888Z,16.93
2019-02-03T19:30:49.081Z,18.37
2019-02-03T19:33:15.590Z,18.07
2019-02-03T19:35:41.799Z,12.33
2019-02-03T19:38:08.223Z,12.47
2019-02-03T19:40:34.685Z,14.33
2019-02-03T19:43:01.529Z,13.17
2019-02-03T19:45:29.238Z,11.93
2019-02-03T19:47:55.642Z,13.13
2019-02-03T19:50:25.071Z,12.37
2019-02-03T19:52:51.281Z,11.80
2019-02-03T19:55:17.605Z,13.77
2019-02-03T19:57:43.812Z,16.63
2019-02-03T20:00:19.356Z,14.20
2019-02-03T20:02:45.859Z,15.67
2019-02-03T20:05:12.291Z,12.50
2019-02-03T20:07:38.489Z,16.43
2019-02-03T20:10:08.511Z,218.43
2019-02-03T20:12:34.711Z,47.87
2019-02-03T20:15:09.525Z,38.57
2019-02-03T20:17:29.164Z,22.57
2019-02-03T20:19:55.447Z,15.63
2019-02-03T20:22:21.791Z,16.17
2019-02-03T20:24:48.015Z,18.20
2019-02-03T20:27:14.229Z,17.00
2019-02-03T20:29:40.444Z,18.53
2019-02-03T20:32:06.863Z,18.93
2019-02-03T20:34:33.379Z,24.53
2019-02-03T20:36:59.690Z,20.37
2019-02-03T20:39:26.019Z,23.70
2019-02-03T20:41:52.233Z,27.40
2019-02-03T20:44:18.473Z,23.40
2019-02-03T20:46:44.679Z,22.50
2019-02-03T20:49:10.918Z,22.30
2019-02-03T20:51:37.189Z,19.27
2019-02-03T20:54:03.867Z,16.60
2019-02-03T20:56:30.084Z,17.73
2019-02-03T20:58:57.417Z,16.73
2019-02-03T21:01:23.915Z,16.07
2019-02-03T21:03:50.114Z,21.67
2019-02-03T21:06:16.334Z,18.07
2019-02-03T21:08:42.526Z,17.93
2019-02-03T21:11:08.810Z,15.63
2019-02-03T21:13:35.107Z,17.67
2019-02-03T21:16:01.410Z,17.90
2019-02-03T21:18:27.655Z,15.23
2019-02-03T21:20:53.974Z,14.13
2019-02-03T21:23:22.091Z,17.07
2019-02-03T21:25:48.338Z,17.27
2019-02-03T21:28:14.574Z,17.00
2019-02-03T21:30:41.278Z,14.53
2019-02-03T21:33:07.608Z,16.57
2019-02-03T21:35:34.106Z,17.53
2019-02-03T21:38:00.482Z,19.27
2019-02-03T21:40:28.914Z,16.60
2019-02-03T21:42:55.143Z,16.87
2019-02-03T21:45:22.150Z,16.77
2019-02-03T21:47:48.975Z,16.83
2019-02-03T21:50:18.285Z,15.83
2019-02-03T21:52:49.490Z,17.27
2019-02-03T21:55:17.718Z,17.60
2019-02-03T21:57:50.377Z,17.60
2019-02-03T22:00:24.586Z,16.37
2019-02-03T22:02:50.943Z,16.73
2019-02-03T22:05:17.138Z,15.73
2019-02-03T22:07:43.363Z,14.90
2019-02-03T22:10:15.318Z,17.33
2019-02-03T22:12:41.735Z,13.90
2019-02-03T22:15:08.431Z,15.80
2019-02-03T22:17:34.984Z,14.33
2019-02-03T22:20:03.507Z,14.53
2019-02-03T22:22:29.807Z,15.43
2019-02-03T22:24:56.035Z,15.97
2019-02-03T22:27:22.238Z,15.07
2019-02-03T22:29:48.465Z,16.37
2019-02-03T22:32:14.766Z,14.20
2019-02-03T22:34:41.286Z,12.90
2019-02-03T22:37:07.486Z,16.00
2019-02-03T22:39:33.810Z,16.40
2019-02-03T22:42:00.018Z,14.03
2019-02-03T22:44:26.443Z,14.50
2019-02-03T22:46:52.755Z,15.03
2019-02-03T22:49:18.962Z,15.37
2019-02-03T22:51:45.583Z,16.63
2019-02-03T22:54:11.781Z,16.47
2019-02-03T22:56:37.999Z,15.63
2019-02-03T22:59:04.299Z,13.73
2019-02-03T23:01:31.102Z,15.73
2019-02-03T23:03:57.306Z,16.83
2019-02-03T23:06:23.630Z,17.77
2019-02-03T23:08:49.834Z,15.03
2019-02-03T23:11:16.054Z,15.20
2019-02-03T23:13:42.260Z,15.43
2019-02-03T23:16:18.048Z,16.40
2019-02-03T23:18:37.354Z,18.57
2019-02-03T23:21:03.994Z,15.93
2019-02-03T23:23:30.322Z,18.67
2019-02-03T23:25:56.536Z,17.13
2019-02-03T23:28:23.153Z,17.87
2019-02-03T23:30:49.363Z,17.37
2019-02-03T23:33:15.681Z,20.20
2019-02-03T23:35:41.891Z,19.37
2019-02-03T23:38:08.309Z,19.87
2019-02-03T23:40:34.510Z,19.50
2019-02-03T23:43:00.961Z,18.60
2019-02-03T23:45:27.358Z,19.43
2019-02-03T23:47:53.573Z,18.30
2019-02-03T23:50:20.678Z,19.90
2019-02-03T23:52:46.907Z,20.77
2019-02-03T23:55:13.422Z,23.53
2019-02-03T23:57:40.039Z,19.27
